createdAt,value
2023-04-03T00:00:08.452Z,2.17
2023-04-03T00:02:11.666Z,2.31
2023-04-03T00:04:14.696Z,2.24
2023-04-03T00:06:17.629Z,2.24
2023-04-03T00:08:21.074Z,2.21
2023-04-03T00:10:24.094Z,2.18
2023-04-03T00:12:28.396Z,2.24
2023-04-03T00:14:31.557Z,2.20
2023-04-03T00:16:34.523Z,2.20
2023-04-03T00:18:37.850Z,2.12
2023-04-03T00:20:41.331Z,2.15
2023-04-03T00:22:44.237Z,2.10
2023-04-03T00:24:47.107Z,2.15
2023-04-03T00:26:50.204Z,2.10
2023-04-03T00:28:54.691Z,2.06
2023-04-03T00:30:57.669Z,2.07
2023-04-03T00:33:01.979Z,2.07
2023-04-03T00:35:05.552Z,2.11
2023-04-03T00:37:08.668Z,2.01
2023-04-03T00:39:11.741Z,2.07
2023-04-03T00:41:14.702Z,1.98
2023-04-03T00:43:20.072Z,2.04
2023-04-03T00:45:33.860Z,2.03
2023-04-03T00:47:36.887Z,1.98
2023-04-03T00:49:41.429Z,1.94
2023-04-03T00:51:44.506Z,2.03
2023-04-03T00:53:52.044Z,1.88
2023-04-03T00:55:57.299Z,1.83
2023-04-03T00:58:02.102Z,1.82
2023-04-03T01:00:10.333Z,1.83
2023-04-03T01:02:14.912Z,1.86
2023-04-03T01:04:29.703Z,1.88
2023-04-03T01:06:36.596Z,1.85
2023-04-03T01:08:46.095Z,1.83
2023-04-03T01:10:49.201Z,1.81
2023-04-03T01:12:53.752Z,1.76
2023-04-03T01:14:58.737Z,1.69
2023-04-03T01:17:01.597Z,1.66
2023-04-03T01:19:10.136Z,1.72
2023-04-03T01:21:52.080Z,1.70
2023-04-03T01:24:13.126Z,1.71
2023-04-03T01:26:16.616Z,1.68
2023-04-03T01:28:23.137Z,1.67
2023-04-03T01:30:31.429Z,1.57
2023-04-03T01:32:37.254Z,1.63
2023-04-03T01:34:40.165Z,1.61
2023-04-03T01:36:43.196Z,1.61
2023-04-03T01:38:46.502Z,1.57
2023-04-03T01:40:49.476Z,1.51
2023-04-03T01:42:52.356Z,1.51
2023-04-03T01:44:55.447Z,1.54
2023-04-03T01:46:58.408Z,1.48
2023-04-03T01:49:05.877Z,1.37
2023-04-03T01:51:08.792Z,1.49
2023-04-03T01:53:11.954Z,1.42
2023-04-03T01:55:14.920Z,1.39
2023-04-03T01:57:18.135Z,1.42
2023-04-03T01:59:21.097Z,1.41
2023-04-03T02:01:24.544Z,1.41
2023-04-03T02:03:27.774Z,1.37
2023-04-03T02:05:32.421Z,1.33
2023-04-03T02:07:35.256Z,1.19
2023-04-03T02:09:38.509Z,1.21
2023-04-03T02:11:41.585Z,1.24
2023-04-03T02:13:45.147Z,1.09
2023-04-03T02:15:49.026Z,0.99
2023-04-03T02:17:53.763Z,1.05
2023-04-03T02:19:57.343Z,1.08
2023-04-03T02:22:01.763Z,0.84
2023-04-03T02:24:04.792Z,0.83
2023-04-03T02:26:10.551Z,0.63
2023-04-03T02:28:13.422Z,0.72
2023-04-03T02:30:16.950Z,0.60
2023-04-03T02:32:20.062Z,0.60
2023-04-03T02:34:23.692Z,0.55
2023-04-03T02:36:27.845Z,0.56
2023-04-03T02:38:36.853Z,0.49
2023-04-03T02:40:40.085Z,0.53
2023-04-03T02:42:43.069Z,0.52
2023-04-03T02:44:46.220Z,0.42
2023-04-03T02:46:49.153Z,0.37
2023-04-03T02:48:52.073Z,0.33
2023-04-03T02:50:55.942Z,0.31
2023-04-03T02:52:58.833Z,0.29
2023-04-03T02:55:03.790Z,0.17
2023-04-03T02:57:10.129Z,0.19
2023-04-03T02:59:13.216Z,0.15
2023-04-03T03:01:17.279Z,-0.03
2023-04-03T03:03:20.425Z,-0.11
2023-04-03T03:05:23.441Z,-0.12
2023-04-03T03:07:27.355Z,-0.14
2023-04-03T03:09:30.807Z,-0.09
2023-04-03T03:11:36.527Z,-0.15
2023-04-03T03:13:39.667Z,-0.15
2023-04-03T03:15:42.579Z,-0.19
2023-04-03T03:17:45.586Z,-0.22
2023-04-03T03:19:48.748Z,-0.21
2023-04-03T03:21:52.374Z,-0.21
2023-04-03T03:23:56.110Z,-0.26
2023-04-03T03:26:01.080Z,-0.34
2023-04-03T03:28:06.023Z,-0.32
2023-04-03T03:30:09.892Z,-0.35
2023-04-03T03:32:13.171Z,-0.44
2023-04-03T03:34:16.213Z,-0.38
2023-04-03T03:36:19.345Z,-0.46
2023-04-03T03:38:22.757Z,-0.47
2023-04-03T03:40:25.701Z,-0.48
2023-04-03T03:42:28.563Z,-0.50
2023-04-03T03:44:33.062Z,-0.55
2023-04-03T03:46:36.466Z,-0.52
2023-04-03T03:48:40.102Z,-0.66
2023-04-03T03:50:43.033Z,-0.77
2023-04-03T03:52:46.136Z,-0.75
2023-04-03T03:54:49.022Z,-0.76
2023-04-03T03:56:52.865Z,-0.84
2023-04-03T03:58:57.486Z,-0.87
2023-04-03T04:01:03.814Z,-0.84
2023-04-03T04:03:07.768Z,-0.84
2023-04-03T04:05:11.736Z,-0.86
2023-04-03T04:07:14.905Z,-0.82
2023-04-03T04:09:18.184Z,-0.94
2023-04-03T04:11:23.292Z,-0.95
2023-04-03T04:13:28.244Z,-0.89
2023-04-03T04:15:32.384Z,-1.02
2023-04-03T04:17:37.584Z,-0.98
2023-04-03T04:19:43.088Z,-1.02
2023-04-03T04:21:46.926Z,-1.05
2023-04-03T04:23:50.346Z,-1.05
2023-04-03T04:25:53.474Z,-1.01
2023-04-03T04:27:57.195Z,-1.01
2023-04-03T04:30:00.232Z,-0.99
2023-04-03T04:32:04.056Z,-1.06
2023-04-03T04:34:08.864Z,-1.01
2023-04-03T04:36:13.300Z,-1.06
2023-04-03T04:38:16.377Z,-1.01
2023-04-03T04:40:19.692Z,-1.06
2023-04-03T04:42:23.437Z,-1.04
2023-04-03T04:44:26.725Z,-1.06
2023-04-03T04:46:30.033Z,-1.13
2023-04-03T04:48:36.288Z,-1.07
2023-04-03T04:50:42.202Z,-1.06
2023-04-03T04:52:44.794Z,-1.06
2023-04-03T04:54:47.358Z,-1.04
2023-04-03T04:56:49.984Z,-1.02
2023-04-03T04:58:52.783Z,-0.89
2023-04-03T05:00:59.924Z,-1.06
2023-04-03T05:03:02.900Z,-1.11
2023-04-03T05:05:06.093Z,-1.02
2023-04-03T05:07:11.473Z,-1.05
2023-04-03T05:09:30.562Z,-1.04
2023-04-03T05:11:33.245Z,-1.04
2023-04-03T05:13:36.545Z,-1.00
2023-04-03T05:15:39.553Z,-0.64
2023-04-03T05:17:42.297Z,-0.41
2023-04-03T05:19:48.507Z,-0.18
2023-04-03T05:21:51.809Z,0.93
2023-04-03T05:23:54.809Z,1.54
2023-04-03T05:25:59.489Z,1.89
2023-04-03T05:28:02.629Z,1.81
2023-04-03T05:30:06.287Z,1.13
2023-04-03T05:32:10.699Z,1.08
2023-04-03T05:34:13.212Z,1.35
2023-04-03T05:36:16.965Z,1.88
2023-04-03T05:38:22.886Z,2.17
2023-04-03T05:40:26.936Z,2.94
2023-04-03T05:42:33.193Z,3.05
2023-04-03T05:44:36.523Z,2.95
2023-04-03T05:46:39.446Z,3.18
2023-04-03T05:48:44.986Z,3.26
2023-04-03T05:50:51.497Z,3.27
2023-04-03T05:53:00.252Z,2.76
2023-04-03T05:55:06.632Z,2.97
2023-04-03T05:57:11.038Z,3.52
2023-04-03T05:59:15.144Z,4.57
2023-04-03T06:01:18.302Z,4.09
2023-04-03T06:03:21.960Z,4.10
2023-04-03T06:05:25.273Z,4.06
2023-04-03T06:07:29.638Z,4.01
2023-04-03T06:09:32.350Z,4.16
2023-04-03T06:11:35.244Z,4.12
2023-04-03T06:13:38.555Z,3.96
2023-04-03T06:15:42.544Z,5.18
2023-04-03T06:17:45.229Z,6.00
2023-04-03T06:19:48.562Z,6.10
2023-04-03T06:21:52.044Z,6.82
2023-04-03T06:23:54.644Z,7.09
2023-04-03T06:25:57.389Z,7.12
2023-04-03T06:28:00.004Z,6.76
2023-04-03T06:30:02.545Z,6.82
2023-04-03T06:32:06.744Z,7.91
2023-04-03T06:34:09.931Z,6.47
2023-04-03T06:36:13.598Z,7.11
2023-04-03T06:38:16.702Z,6.41
2023-04-03T06:40:22.015Z,6.83
2023-04-03T06:42:24.695Z,6.37
2023-04-03T06:44:36.593Z,5.89
2023-04-03T06:46:39.989Z,4.81
2023-04-03T06:48:44.133Z,5.15
2023-04-03T06:50:46.913Z,4.17
2023-04-03T06:52:49.353Z,4.04
2023-04-03T06:54:58.264Z,3.00
2023-04-03T06:57:01.152Z,3.14
2023-04-03T06:59:03.728Z,2.59
2023-04-03T07:01:06.244Z,2.12
2023-04-03T07:03:09.087Z,1.90
2023-04-03T07:05:13.098Z,1.49
2023-04-03T07:07:16.277Z,1.71
2023-04-03T07:09:18.711Z,1.92
2023-04-03T07:11:21.895Z,1.84
2023-04-03T07:13:24.435Z,1.44
2023-04-03T07:15:27.418Z,1.84
2023-04-03T07:17:30.109Z,2.28
2023-04-03T07:19:32.913Z,3.36
2023-04-03T07:21:36.939Z,3.80
2023-04-03T07:23:39.583Z,4.54
2023-04-03T07:25:43.900Z,5.05
2023-04-03T07:27:46.584Z,4.25
2023-04-03T07:29:49.956Z,4.38
2023-04-03T07:31:52.797Z,4.13
2023-04-03T07:33:55.314Z,5.17
2023-04-03T07:35:58.318Z,5.47
2023-04-03T07:38:02.864Z,4.69
2023-04-03T07:40:06.029Z,4.13
2023-04-03T07:42:08.784Z,5.19
2023-04-03T07:44:11.763Z,4.58
2023-04-03T07:46:14.370Z,6.05
2023-04-03T07:48:17.382Z,5.93
2023-04-03T07:50:20.214Z,6.83
2023-04-03T07:52:22.895Z,5.92
2023-04-03T07:54:27.256Z,6.17
2023-04-03T07:56:29.881Z,4.60
2023-04-03T07:58:32.704Z,4.38
2023-04-03T08:00:35.334Z,4.27
2023-04-03T08:02:38.398Z,4.12
2023-04-03T08:04:41.223Z,4.61
2023-04-03T08:06:46.962Z,4.39
2023-04-03T08:08:50.137Z,4.60
2023-04-03T08:10:54.729Z,4.75
2023-04-03T08:12:57.398Z,4.43
2023-04-03T08:15:01.965Z,4.64
2023-04-03T08:17:06.298Z,4.90
2023-04-03T08:19:15.149Z,5.46
2023-04-03T08:21:21.803Z,5.47
2023-04-03T08:23:24.349Z,5.59
2023-04-03T08:25:27.271Z,5.78
2023-04-03T08:27:31.452Z,6.13
2023-04-03T08:29:34.791Z,5.76
2023-04-03T08:31:38.052Z,5.89
2023-04-03T08:33:40.985Z,5.55
2023-04-03T08:35:43.908Z,5.31
2023-04-03T08:37:46.818Z,6.35
2023-04-03T08:39:49.345Z,6.71
2023-04-03T08:41:51.984Z,6.10
2023-04-03T08:44:10.456Z,6.25
2023-04-03T08:46:15.087Z,7.18
2023-04-03T08:48:20.747Z,6.79
2023-04-03T08:50:26.474Z,6.94
2023-04-03T08:52:33.464Z,6.43
2023-04-03T08:54:39.085Z,6.42
2023-04-03T08:56:42.319Z,6.09
2023-04-03T08:58:49.026Z,6.29
2023-04-03T09:00:55.411Z,6.91
2023-04-03T09:02:58.422Z,6.49
2023-04-03T09:05:01.005Z,5.73
2023-04-03T09:07:08.815Z,5.33
2023-04-03T09:09:15.020Z,5.91
2023-04-03T09:11:23.264Z,5.24
2023-04-03T09:13:28.802Z,5.27
2023-04-03T09:15:39.128Z,5.18
2023-04-03T09:17:49.405Z,5.35
2023-04-03T09:19:55.873Z,5.27
2023-04-03T09:21:58.724Z,4.97
2023-04-03T09:24:03.033Z,4.58
2023-04-03T09:26:10.444Z,5.00
2023-04-03T09:28:13.461Z,5.54
2023-04-03T09:30:17.529Z,5.89
2023-04-03T09:32:22.583Z,4.90
2023-04-03T09:34:28.857Z,5.68
2023-04-03T09:36:44.773Z,5.96
2023-04-03T09:38:47.215Z,5.41
2023-04-03T09:40:50.872Z,5.40
2023-04-03T09:43:00.767Z,5.16
2023-04-03T09:45:06.220Z,5.13
2023-04-03T09:47:19.926Z,4.86
2023-04-03T09:49:22.619Z,5.15
2023-04-03T09:51:29.177Z,5.56
2023-04-03T09:53:33.273Z,5.68
2023-04-03T09:55:43.365Z,6.27
2023-04-03T09:57:46.486Z,5.76
2023-04-03T09:59:57.547Z,6.03
2023-04-03T10:02:01.436Z,6.25
2023-04-03T10:04:05.681Z,6.64
2023-04-03T10:06:22.210Z,6.26
2023-04-03T10:08:28.214Z,6.19
2023-04-03T10:10:30.936Z,5.79
2023-04-03T10:12:33.545Z,6.48
2023-04-03T10:14:36.803Z,6.21
2023-04-03T10:16:43.165Z,5.97
2023-04-03T10:18:48.294Z,6.45
2023-04-03T10:20:53.521Z,6.04
2023-04-03T10:23:02.432Z,5.92
2023-04-03T10:25:13.942Z,6.24
2023-04-03T10:27:20.263Z,6.38
2023-04-03T10:29:27.433Z,6.81
2023-04-03T10:31:33.062Z,6.95
2023-04-03T10:33:41.480Z,7.27
2023-04-03T10:35:47.439Z,6.87
2023-04-03T10:37:59.471Z,6.45
2023-04-03T10:40:03.615Z,6.81
2023-04-03T10:42:17.085Z,6.78
2023-04-03T10:44:27.550Z,6.80
2023-04-03T10:46:33.830Z,6.57
2023-04-03T10:48:48.431Z,6.38
2023-04-03T10:50:56.351Z,6.98
2023-04-03T10:53:02.564Z,7.39
2023-04-03T10:55:11.963Z,7.51
2023-04-03T10:57:16.168Z,7.95
2023-04-03T10:59:22.581Z,7.85
2023-04-03T11:01:27.487Z,7.21
2023-04-03T11:03:33.327Z,6.89
2023-04-03T11:05:38.447Z,6.55
2023-04-03T11:07:42.277Z,6.37
2023-04-03T11:09:47.856Z,6.97
2023-04-03T11:11:52.938Z,6.55
2023-04-03T11:14:02.000Z,7.05
2023-04-03T11:16:05.442Z,7.72
2023-04-03T11:18:12.008Z,7.42
2023-04-03T11:20:19.178Z,7.23
2023-04-03T11:22:24.705Z,7.60
2023-04-03T11:24:29.188Z,6.79
2023-04-03T11:26:34.162Z,6.71
2023-04-03T11:28:37.585Z,6.73
2023-04-03T11:30:44.977Z,6.37
2023-04-03T11:32:59.114Z,6.56
2023-04-03T11:35:03.016Z,6.90
2023-04-03T11:37:07.314Z,6.12
2023-04-03T11:39:18.326Z,6.72
2023-04-03T11:41:26.162Z,6.66
2023-04-03T11:43:30.708Z,7.10
2023-04-03T11:45:38.389Z,6.65
2023-04-03T11:47:49.632Z,7.15
2023-04-03T11:50:00.820Z,6.97
2023-04-03T11:52:03.833Z,7.19
2023-04-03T11:54:21.044Z,7.41
2023-04-03T11:56:34.210Z,7.71
2023-04-03T11:58:37.573Z,6.86
2023-04-03T12:00:57.171Z,6.95
2023-04-03T12:03:01.308Z,6.24
2023-04-03T12:05:22.630Z,5.85
2023-04-03T12:07:25.234Z,6.40
2023-04-03T12:09:33.587Z,6.45
2023-04-03T12:11:37.220Z,6.29
2023-04-03T12:13:41.291Z,6.15
2023-04-03T12:15:50.749Z,6.06
2023-04-03T12:17:53.479Z,6.22
2023-04-03T12:19:57.887Z,6.57
2023-04-03T12:22:24.508Z,6.61
2023-04-03T12:24:27.950Z,6.71
2023-04-03T12:26:42.124Z,7.09
2023-04-03T12:28:52.443Z,7.63
2023-04-03T12:30:55.181Z,7.28
2023-04-03T12:33:13.861Z,7.21
2023-04-03T12:35:22.029Z,6.78
2023-04-03T12:37:35.763Z,6.83
2023-04-03T12:39:56.119Z,6.59
2023-04-03T12:42:04.905Z,6.78
2023-04-03T12:44:25.507Z,6.98
2023-04-03T12:46:30.004Z,7.44
2023-04-03T12:48:33.811Z,7.82
2023-04-03T12:50:37.897Z,7.15
2023-04-03T12:52:43.099Z,6.83
2023-04-03T12:54:47.086Z,6.58
2023-04-03T12:56:49.820Z,6.53
2023-04-03T12:58:53.052Z,6.83
2023-04-03T13:01:02.697Z,6.74
2023-04-03T13:03:06.393Z,6.87
2023-04-03T13:05:10.215Z,6.66
2023-04-03T13:07:21.732Z,6.67
2023-04-03T13:09:26.696Z,6.35
2023-04-03T13:11:32.367Z,5.98
2023-04-03T13:13:34.960Z,5.73
2023-04-03T13:15:43.166Z,5.53
2023-04-03T13:17:46.136Z,6.34
2023-04-03T13:19:48.788Z,6.88
2023-04-03T13:21:54.525Z,6.35
2023-04-03T13:24:13.848Z,6.24
2023-04-03T13:26:18.699Z,5.89
2023-04-03T13:28:23.297Z,5.99
2023-04-03T13:30:27.779Z,6.39
2023-04-03T13:32:31.329Z,6.89
2023-04-03T13:34:37.892Z,6.89
2023-04-03T13:36:41.739Z,6.95
2023-04-03T13:38:44.280Z,6.64
2023-04-03T13:40:52.309Z,6.95
2023-04-03T13:43:02.820Z,6.60
2023-04-03T13:45:12.506Z,6.07
2023-04-03T13:47:20.172Z,5.76
2023-04-03T13:49:23.918Z,5.68
2023-04-03T13:51:27.557Z,6.00
2023-04-03T13:53:32.450Z,6.35
2023-04-03T13:55:36.713Z,6.55
2023-04-03T13:57:49.595Z,6.69
2023-04-03T13:59:52.639Z,6.53
2023-04-03T14:01:56.421Z,6.13
2023-04-03T14:04:00.094Z,6.08
2023-04-03T14:06:03.026Z,5.56
2023-04-03T14:08:05.775Z,5.16
2023-04-03T14:10:08.633Z,5.71
2023-04-03T14:12:30.225Z,6.04
2023-04-03T14:14:36.912Z,6.52
2023-04-03T14:16:42.221Z,6.75
2023-04-03T14:18:45.154Z,6.57
2023-04-03T14:20:48.120Z,6.18
2023-04-03T14:22:52.163Z,5.92
2023-04-03T14:24:54.965Z,6.22
2023-04-03T14:26:58.614Z,6.54
2023-04-03T14:29:01.267Z,6.74
2023-04-03T14:31:05.227Z,6.99
2023-04-03T14:33:08.267Z,6.85
2023-04-03T14:35:10.963Z,6.87
2023-04-03T14:37:14.546Z,6.42
2023-04-03T14:39:19.014Z,6.23
2023-04-03T14:41:23.499Z,6.04
2023-04-03T14:43:26.544Z,5.74
2023-04-03T14:45:29.251Z,5.69
2023-04-03T14:47:33.642Z,5.27
2023-04-03T14:49:36.281Z,5.13
2023-04-03T14:51:39.629Z,4.96
2023-04-03T14:53:43.212Z,5.15
2023-04-03T14:55:46.745Z,5.56
2023-04-03T14:57:49.315Z,5.69
2023-04-03T14:59:51.786Z,5.82
2023-04-03T15:01:54.525Z,5.69
2023-04-03T15:03:58.759Z,5.35
2023-04-03T15:06:01.455Z,5.33
2023-04-03T15:08:04.167Z,5.22
2023-04-03T15:10:16.309Z,4.99
2023-04-03T15:12:18.719Z,4.86
2023-04-03T15:14:35.313Z,4.80
2023-04-03T15:16:40.210Z,4.68
2023-04-03T15:18:43.094Z,4.50
2023-04-03T15:20:48.635Z,4.65
2023-04-03T15:22:51.635Z,4.57
2023-04-03T15:24:54.155Z,4.84
2023-04-03T15:26:56.835Z,5.02
2023-04-03T15:28:59.435Z,4.94
2023-04-03T15:31:02.064Z,4.72
2023-04-03T15:33:04.648Z,4.73
2023-04-03T15:35:07.673Z,4.76
2023-04-03T15:37:11.847Z,4.57
2023-04-03T15:39:14.423Z,4.53
2023-04-03T15:41:17.015Z,4.44
2023-04-03T15:43:19.624Z,4.25
2023-04-03T15:45:23.104Z,4.27
2023-04-03T15:47:26.127Z,4.25
2023-04-03T15:49:28.734Z,4.20
2023-04-03T15:51:31.554Z,4.10
2023-04-03T15:53:35.535Z,4.21
2023-04-03T15:55:39.734Z,4.28
2023-04-03T15:57:42.588Z,4.22
2023-04-03T15:59:45.445Z,3.84
2023-04-03T16:01:48.347Z,3.87
2023-04-03T16:03:51.217Z,4.03
2023-04-03T16:05:54.189Z,3.96
2023-04-03T16:07:57.063Z,3.89
2023-04-03T16:10:01.196Z,3.94
2023-04-03T16:12:04.122Z,3.90
2023-04-03T16:14:06.724Z,3.91
2023-04-03T16:16:09.460Z,3.74
2023-04-03T16:18:12.012Z,3.71
2023-04-03T16:20:15.285Z,3.53
2023-04-03T16:22:18.030Z,3.67
2023-04-03T16:24:20.635Z,3.62
2023-04-03T16:26:24.661Z,3.41
2023-04-03T16:28:27.374Z,3.48
2023-04-03T16:30:29.901Z,3.52
2023-04-03T16:32:32.757Z,3.36
2023-04-03T16:34:35.333Z,3.41
2023-04-03T16:36:38.850Z,3.50
2023-04-03T16:38:41.658Z,3.31
2023-04-03T16:40:44.603Z,3.39
2023-04-03T16:42:48.604Z,3.47
2023-04-03T16:44:51.292Z,3.47
2023-04-03T16:46:54.073Z,3.55
2023-04-03T16:48:56.705Z,3.48
2023-04-03T16:50:59.935Z,3.58
2023-04-03T16:53:04.293Z,3.48
2023-04-03T16:55:07.508Z,3.45
2023-04-03T16:57:10.108Z,3.12
2023-04-03T16:59:14.133Z,3.31
2023-04-03T17:01:17.551Z,3.35
2023-04-03T17:03:20.205Z,3.13
2023-04-03T17:05:22.919Z,3.15
2023-04-03T17:07:26.148Z,3.02
2023-04-03T17:09:28.737Z,3.09
2023-04-03T17:11:31.788Z,3.05
2023-04-03T17:13:35.104Z,3.16
2023-04-03T17:15:39.301Z,3.20
2023-04-03T17:17:42.245Z,3.12
2023-04-03T17:19:45.133Z,3.19
2023-04-03T17:21:47.728Z,3.06
2023-04-03T17:23:52.473Z,3.15
2023-04-03T17:25:55.567Z,3.19
2023-04-03T17:27:58.122Z,3.10
2023-04-03T17:30:01.160Z,2.95
2023-04-03T17:32:05.355Z,2.88
2023-04-03T17:34:07.972Z,2.89
2023-04-03T17:36:10.440Z,2.87
2023-04-03T17:38:12.971Z,2.86
2023-04-03T17:40:15.405Z,2.81
2023-04-03T17:42:18.093Z,2.69
2023-04-03T17:44:20.663Z,2.73
2023-04-03T17:46:23.513Z,2.70
2023-04-03T17:48:28.233Z,2.77
2023-04-03T17:50:31.082Z,2.81
2023-04-03T17:52:34.262Z,2.70
2023-04-03T17:54:36.748Z,2.78
2023-04-03T17:56:39.525Z,2.78
2023-04-03T17:58:42.667Z,2.81
2023-04-03T18:00:45.193Z,2.68
2023-04-03T18:02:47.817Z,2.60
2023-04-03T18:04:53.492Z,2.70
2023-04-03T18:06:56.375Z,2.69
2023-04-03T18:09:01.994Z,2.55
2023-04-03T18:11:04.567Z,2.55
2023-04-03T18:13:07.683Z,2.66
2023-04-03T18:15:11.067Z,2.72
2023-04-03T18:17:13.520Z,2.72
2023-04-03T18:21:23.027Z,2.74
2023-04-03T18:23:25.885Z,2.68
2023-04-03T18:25:28.482Z,2.69
2023-04-03T18:27:31.150Z,2.68
2023-04-03T18:29:35.146Z,2.63
2023-04-03T18:31:38.121Z,2.67
2023-04-03T18:33:40.767Z,2.40
2023-04-03T18:35:43.434Z,2.53
2023-04-03T18:37:47.612Z,2.64
2023-04-03T18:39:50.164Z,2.42
2023-04-03T18:41:53.000Z,2.41
2023-04-03T18:43:55.907Z,2.37
2023-04-03T18:45:58.572Z,2.29
2023-04-03T18:48:01.432Z,2.26
2023-04-03T18:50:04.522Z,2.18
2023-04-03T18:52:07.476Z,2.20
2023-04-03T18:54:11.577Z,2.18
2023-04-03T18:56:14.158Z,2.20
2023-04-03T18:58:16.664Z,2.02
2023-04-03T19:00:19.331Z,2.12
2023-04-03T19:02:24.006Z,1.94
2023-04-03T19:04:27.096Z,1.92
2023-04-03T19:06:29.862Z,2.01
2023-04-03T19:08:32.863Z,2.00
2023-04-03T19:10:37.224Z,1.98
2023-04-03T19:12:39.735Z,1.85
2023-04-03T19:14:42.109Z,1.78
2023-04-03T19:16:45.253Z,1.85
2023-04-03T19:18:47.792Z,1.77
2023-04-03T19:20:50.462Z,1.78
2023-04-03T19:22:52.934Z,1.76
2023-04-03T19:24:55.494Z,1.87
2023-04-03T19:26:59.423Z,1.78
2023-04-03T19:29:02.143Z,1.81
2023-04-03T19:31:11.323Z,1.71
2023-04-03T19:33:14.104Z,1.72
2023-04-03T19:35:16.574Z,1.70
2023-04-03T19:37:19.784Z,1.71
2023-04-03T19:39:22.357Z,1.69
2023-04-03T19:41:26.032Z,1.79
2023-04-03T19:43:30.350Z,1.72
2023-04-03T19:45:33.193Z,1.71
2023-04-03T19:47:36.007Z,1.57
2023-04-03T19:49:38.803Z,1.59
2023-04-03T19:51:41.876Z,1.49
2023-04-03T19:53:44.413Z,1.62
2023-04-03T19:55:46.922Z,1.58
2023-04-03T19:57:49.572Z,1.57
2023-04-03T19:59:53.572Z,1.66
2023-04-03T20:01:57.534Z,1.61
2023-04-03T20:04:00.314Z,1.58
2023-04-03T20:06:04.819Z,1.47
2023-04-03T20:08:07.596Z,1.34
2023-04-03T20:10:12.273Z,1.39
2023-04-03T20:12:14.823Z,1.44
2023-04-03T20:14:17.772Z,1.42
2023-04-03T20:16:26.273Z,1.41
2023-04-03T20:18:29.173Z,1.39
2023-04-03T20:20:31.583Z,1.34
2023-04-03T20:22:34.804Z,1.39
2023-04-03T20:24:37.345Z,1.36
2023-04-03T20:26:44.025Z,1.29
2023-04-03T20:28:46.683Z,1.29
2023-04-03T20:30:51.575Z,1.36
2023-04-03T20:32:56.432Z,1.11
2023-04-03T20:35:04.424Z,1.26
2023-04-03T20:37:08.784Z,1.33
2023-04-03T20:39:11.349Z,1.32
2023-04-03T20:41:13.865Z,1.37
2023-04-03T20:43:17.471Z,1.35
2023-04-03T20:45:21.650Z,1.32
2023-04-03T20:47:24.727Z,1.32
2023-04-03T20:49:28.841Z,1.39
2023-04-03T20:51:31.718Z,1.36
2023-04-03T20:53:34.201Z,1.36
2023-04-03T20:55:37.502Z,1.32
2023-04-03T20:57:40.065Z,1.37
2023-04-03T20:59:42.951Z,1.26
2023-04-03T21:01:46.752Z,1.17
2023-04-03T21:03:50.300Z,1.23
2023-04-03T21:05:59.951Z,1.02
2023-04-03T21:08:21.143Z,1.15
2023-04-03T21:10:42.490Z,1.21
2023-04-03T21:13:03.638Z,1.18
2023-04-03T21:15:24.717Z,1.10
2023-04-03T21:17:27.221Z,1.00
2023-04-03T21:19:31.352Z,1.02
2023-04-03T21:21:36.594Z,1.02
2023-04-03T21:23:39.058Z,0.96
2023-04-03T21:25:41.740Z,0.75
2023-04-03T21:27:44.150Z,0.70
2023-04-03T21:29:46.706Z,0.54
2023-04-03T21:31:53.690Z,0.40
2023-04-03T21:33:56.269Z,0.47
2023-04-03T21:36:00.296Z,0.51
2023-04-03T21:38:02.837Z,0.48
2023-04-03T21:40:06.063Z,0.41
2023-04-03T21:42:08.780Z,0.40
2023-04-03T21:44:11.291Z,0.17
2023-04-03T21:46:14.075Z,0.30
2023-04-03T21:48:18.377Z,0.35
2023-04-03T21:50:21.187Z,0.39
2023-04-03T21:52:25.116Z,0.41
2023-04-03T21:54:28.016Z,0.35
2023-04-03T21:56:31.694Z,0.44
2023-04-03T21:58:34.370Z,0.33
2023-04-03T22:00:37.010Z,0.26
2023-04-03T22:02:40.671Z,0.32
2023-04-03T22:04:43.175Z,0.38
2023-04-03T22:06:46.236Z,0.42
2023-04-03T22:08:50.095Z,0.18
2023-04-03T22:10:53.336Z,0.34
2023-04-03T22:12:56.057Z,0.30
2023-04-03T22:14:58.745Z,0.33
2023-04-03T22:17:01.352Z,0.31
2023-04-03T22:19:03.871Z,0.32
2023-04-03T22:21:09.633Z,0.27
2023-04-03T22:23:12.256Z,0.35
2023-04-03T22:25:16.101Z,0.42
2023-04-03T22:27:18.646Z,0.29
2023-04-03T22:29:21.526Z,0.25
2023-04-03T22:31:24.402Z,0.29
2023-04-03T22:33:27.453Z,0.37
2023-04-03T22:35:29.949Z,0.23
2023-04-03T22:37:33.062Z,0.22
2023-04-03T22:39:35.583Z,0.16
2023-04-03T22:41:39.452Z,0.30
2023-04-03T22:43:42.946Z,0.34
2023-04-03T22:45:48.713Z,0.22
2023-04-03T22:47:51.278Z,0.32
2023-04-03T22:49:53.876Z,0.23
2023-04-03T22:51:56.572Z,0.21
2023-04-03T22:53:59.024Z,0.10
2023-04-03T22:56:02.270Z,0.24
2023-04-03T22:58:06.273Z,0.29
2023-04-03T23:00:09.808Z,-0.02
2023-04-03T23:02:13.164Z,0.03
2023-04-03T23:04:16.705Z,-0.07
2023-04-03T23:06:19.121Z,-0.06
2023-04-03T23:08:22.011Z,0.10
2023-04-03T23:10:24.645Z,0.02
2023-04-03T23:12:27.261Z,-0.09
2023-04-03T23:14:31.332Z,-0.07
2023-04-03T23:16:33.826Z,0.04
2023-04-03T23:18:40.152Z,-0.13
2023-04-03T23:20:42.691Z,-0.02
2023-04-03T23:22:45.890Z,0.04
2023-04-03T23:24:48.691Z,0.06
2023-04-03T23:26:51.202Z,-0.09
2023-04-03T23:28:53.690Z,-0.05
2023-04-03T23:31:00.567Z,-0.04
2023-04-03T23:33:03.126Z,-0.07
2023-04-03T23:35:06.003Z,-0.07
2023-04-03T23:37:12.475Z,-0.07
2023-04-03T23:39:15.046Z,-0.11
2023-04-03T23:41:17.565Z,-0.27
2023-04-03T23:43:20.073Z,-0.37
2023-04-03T23:45:22.936Z,-0.33
2023-04-03T23:47:27.729Z,-0.38
2023-04-03T23:49:30.545Z,-0.40
2023-04-03T23:51:33.041Z,-0.52
2023-04-03T23:53:35.549Z,-0.57
2023-04-03T23:55:39.064Z,-0.53
2023-04-03T23:57:41.974Z,-0.61
2023-04-03T23:59:44.554Z,-0.55
